Terminal Aerodrome Forecast
Issued by NWS

Home | Current Version | Previous Version | Text Only | Print | Product List | Glossary On
Versions: 1 2 3 4 5 6 7 8 9 10 11 12 13 14 15 16 17
000
FTUS45 KABQ 210500
TAFLVS
TAF
KLVS 210534Z 2106/2206 18008KT P6SM BKN040 BKN090
     FM210900 20007KT P6SM BKN015 OVC035
     FM211700 18012KT P6SM SCT050 SCT090
     FM211900 20015KT P6SM VCTS SCT050CB BKN080=

USA.gov is the U.S. government's official web portal to all federal, state and local government web resources and services.